Time;durP1;ratioP1;P1;durP2;ratioP2;P2;SDS_P1;SDS_P2;PMS_P1;PMS_P2;Temp;Humidity;BMP_temperature;BMP_pressure;BME280_temperature;BME280_humidity;BME280_pressure;Samples;Min_cycle;Max_cycle;Signal;HPM_P1;HPM_P2
2022/11/16 00:02:17;;;;;;;7.45;4.68;;;;;;;10.92;70.70;99283.34;4378152;32;32735;-93
2022/11/16 00:04:46;;;;;;;2.87;2.70;;;;;;;10.96;70.95;99282.22;4378087;32;32370;-90
2022/11/16 00:07:13;;;;;;;3.00;2.22;;;;;;;10.94;71.01;99272.69;4372051;32;33720;-93
2022/11/16 00:10:06;;;;;;;5.45;4.93;;;;;;;10.75;71.76;99273.66;4339080;32;32793;-90
2022/11/16 00:12:33;;;;;;;9.73;6.55;;;;;;;10.65;72.27;99274.22;4359926;32;33198;-90
2022/11/16 00:15:01;;;;;;;7.22;4.85;;;;;;;10.90;71.13;99272.00;4351953;32;31910;-94
2022/11/16 00:17:40;;;;;;;8.90;6.32;;;;;;;10.66;72.27;99268.00;4347405;33;32738;-93
2022/11/16 00:20:31;;;;;;;5.70;4.68;;;;;;;10.65;72.26;99266.31;4361421;32;33126;-85
2022/11/16 00:22:59;;;;;;;7.65;6.87;;;;;;;10.68;72.08;99264.38;4350735;32;34471;-85
2022/11/16 00:25:27;;;;;;;5.12;4.82;;;;;;;10.83;71.82;99260.06;4362117;32;33757;-85
2022/11/16 00:27:54;;;;;;;3.65;3.45;;;;;;;11.06;70.93;99256.16;4363436;32;34582;-85
2022/11/16 00:30:22;;;;;;;4.37;3.80;;;;;;;10.93;70.97;99257.78;4363344;32;34004;-85
2022/11/16 00:32:50;;;;;;;7.00;4.65;;;;;;;10.94;71.40;99247.13;4350540;32;34523;-85
2022/11/16 00:35:18;;;;;;;14.82;8.15;;;;;;;10.67;72.25;99243.31;4362426;32;32194;-86
2022/11/16 00:37:45;;;;;;;7.15;5.57;;;;;;;10.43;73.10;99246.28;4362795;32;33594;-86
2022/11/16 00:40:13;;;;;;;4.40;4.10;;;;;;;10.76;72.15;99248.97;4375480;32;34033;-85
2022/11/16 00:42:41;;;;;;;5.65;3.72;;;;;;;10.83;71.66;99246.84;4372812;32;35380;-86
2022/11/16 00:45:09;;;;;;;2.50;2.37;;;;;;;10.90;71.56;99237.66;4362168;32;33285;-86
2022/11/16 00:47:37;;;;;;;6.72;5.12;;;;;;;10.91;71.81;99236.72;4374461;32;33939;-86
2022/11/16 00:50:05;;;;;;;4.15;3.85;;;;;;;10.98;71.54;99234.59;4350864;32;32741;-86
2022/11/16 00:52:33;;;;;;;3.25;3.03;;;;;;;10.97;71.37;99225.84;4350381;32;32399;-86
2022/11/16 00:55:00;;;;;;;4.22;3.83;;;;;;;10.98;71.44;99222.25;4362985;32;33064;-86
2022/11/16 00:57:28;;;;;;;3.53;3.22;;;;;;;11.03;70.99;99220.22;4350706;32;33791;-86
2022/11/16 00:59:56;;;;;;;4.95;3.97;;;;;;;11.08;71.17;99224.41;4349555;32;33007;-85
2022/11/16 01:02:23;;;;;;;5.10;4.78;;;;;;;11.15;70.58;99207.25;4348328;32;32569;-87
2022/11/16 01:04:51;;;;;;;5.03;3.92;;;;;;;11.10;70.33;99210.16;4350786;32;32650;-87
2022/11/16 01:07:19;;;;;;;2.85;2.67;;;;;;;10.94;71.20;99212.78;4363115;32;34494;-86
2022/11/16 01:09:47;;;;;;;3.72;2.47;;;;;;;11.12;70.63;99210.94;4362232;32;32748;-88
2022/11/16 01:12:16;;;;;;;8.50;7.00;;;;;;;11.10;70.72;99201.37;4350721;32;33101;-87
2022/11/16 01:14:45;;;;;;;9.85;3.25;;;;;;;10.94;71.36;99211.94;4375665;32;34067;-87
2022/11/16 01:17:14;;;;;;;2.55;2.45;;;;;;;10.91;71.32;99205.00;4376373;32;33687;-84
2022/11/16 01:19:42;;;;;;;4.37;4.00;;;;;;;10.84;71.77;99198.38;4351742;32;32589;-83
2022/11/16 01:22:09;;;;;;;7.05;5.62;;;;;;;10.58;72.28;99191.84;4364217;32;32810;-83
2022/11/16 01:24:37;;;;;;;3.30;2.70;;;;;;;10.77;72.06;99183.78;4377912;32;32965;-83
2022/11/16 01:27:04;;;;;;;5.68;5.28;;;;;;;10.75;72.53;99183.03;4372717;32;32934;-83
2022/11/16 01:29:33;;;;;;;3.78;3.53;;;;;;;10.72;72.29;99177.91;4376840;32;34320;-83
2022/11/16 01:32:01;;;;;;;3.10;2.72;;;;;;;10.62;73.00;99176.69;4352035;32;32869;-84
2022/11/16 01:34:28;;;;;;;5.50;4.97;;;;;;;10.81;71.84;99169.47;4363707;32;32923;-84
2022/11/16 01:36:57;;;;;;;5.68;3.87;;;;;;;10.77;72.42;99168.78;4348640;32;32387;-84
2022/11/16 01:39:27;;;;;;;3.92;3.55;;;;;;;10.96;71.56;99166.00;4375748;32;32747;-84
2022/11/16 01:41:55;;;;;;;4.97;3.37;;;;;;;10.83;71.82;99170.28;4364179;32;34442;-83
2022/11/16 01:44:31;;;;;;;4.55;4.15;;;;;;;10.61;73.10;99165.28;4362638;32;33921;-84
2022/11/16 01:47:05;;;;;;;6.05;3.15;;;;;;;10.83;72.24;99165.00;4377428;32;33662;-82
2022/11/16 01:49:36;;;;;;;4.03;3.53;;;;;;;10.76;72.45;99158.31;4363412;32;33641;-83
2022/11/16 01:52:07;;;;;;;7.95;3.53;;;;;;;10.97;71.65;99146.59;4376073;32;33768;-83
2022/11/16 01:54:37;;;;;;;8.75;5.00;;;;;;;10.89;71.94;99142.66;4337390;32;35108;-83
2022/11/16 01:57:22;;;;;;;5.50;3.37;;;;;;;11.05;71.30;99148.78;4362957;32;33117;-83
2022/11/16 01:59:53;;;;;;;6.10;5.15;;;;;;;11.04;71.65;99141.81;4350483;32;33046;-90
2022/11/16 02:02:22;;;;;;;5.22;3.22;;;;;;;10.88;71.73;99141.81;4349127;32;33095;-89
2022/11/16 02:04:51;;;;;;;5.12;4.65;;;;;;;10.93;71.62;99134.50;4362562;32;32771;-89
2022/11/16 02:09:52;;;;;;;4.47;3.85;;;;;;;10.92;71.71;99138.06;4376763;32;33970;-88
2022/11/16 02:10:35;;;;;;;4.55;3.75;;;;;;;10.90;72.00;99129.38;4366615;32;33931;-88
2022/11/16 02:13:19;;;;;;;3.07;2.70;;;;;;;10.84;71.95;99120.94;4350919;32;32967;-88
2022/11/16 02:16:02;;;;;;;3.90;3.58;;;;;;;11.08;71.19;99119.56;4364529;32;33428;-87
2022/11/16 02:18:37;;;;;;;3.67;3.40;;;;;;;10.76;72.33;99121.34;4347977;32;34151;-88
2022/11/16 02:21:24;;;;;;;2.62;2.53;;;;;;;10.68;72.49;99118.28;4364331;32;35751;-90
2022/11/16 02:24:14;;;;;;;3.03;2.55;;;;;;;10.99;71.78;99123.56;4349357;32;33390;-89
2022/11/16 02:26:46;;;;;;;2.87;2.35;;;;;;;10.87;72.28;99113.72;4364833;32;33307;-90
2022/11/16 02:29:50;;;;;;;2.60;2.08;;;;;;;10.87;72.50;99111.06;4382927;32;33357;-89
2022/11/16 02:32:31;;;;;;;3.45;3.17;;;;;;;11.01;72.15;99105.88;4389563;32;32501;-88
2022/11/16 02:35:17;;;;;;;5.05;3.67;;;;;;;10.99;71.82;99101.59;4389474;32;32515;-87
2022/11/16 02:37:50;;;;;;;8.18;3.10;;;;;;;11.39;70.46;99086.06;4376949;32;32844;-90
2022/11/16 02:41:07;;;;;;;1.83;1.67;;;;;;;10.99;71.29;99091.88;4360598;32;32763;-91
2022/11/16 02:44:02;;;;;;;3.08;2.35;;;;;;;11.27;71.01;99087.66;4388858;32;33407;-88
2022/11/16 02:46:53;;;;;;;2.37;2.12;;;;;;;11.36;70.70;99081.00;4376985;32;33138;-89
2022/11/16 02:49:22;;;;;;;4.43;4.00;;;;;;;11.08;71.49;99084.38;4390096;32;32279;-88
2022/11/16 02:51:51;;;;;;;3.97;3.33;;;;;;;10.73;72.96;99085.44;4401546;32;33257;-87
2022/11/16 02:54:20;;;;;;;5.32;3.05;;;;;;;11.10;71.73;99080.69;4391987;32;33636;-85
2022/11/16 02:57:18;;;;;;;2.65;2.45;;;;;;;11.24;71.08;99074.59;4394020;32;32910;-86
2022/11/16 02:59:49;;;;;;;1.37;1.30;;;;;;;11.24;71.19;99070.16;4388601;32;32980;-87
2022/11/16 03:02:36;;;;;;;3.20;3.05;;;;;;;11.50;70.24;99066.00;4404323;32;34555;-87
2022/11/16 03:05:08;;;;;;;1.33;1.23;;;;;;;11.24;71.23;99069.31;4404814;32;34879;-86
2022/11/16 03:07:51;;;;;;;6.28;3.97;;;;;;;11.15;71.67;99067.22;4362415;32;32310;-89
2022/11/16 03:13:11;;;;;;;3.00;2.75;;;;;;;11.42;70.82;99065.59;4387497;32;32477;-85
2022/11/16 03:15:40;;;;;;;2.25;1.45;;;;;;;11.36;70.93;99067.78;4393922;32;33857;-85
2022/11/16 03:18:08;;;;;;;3.78;3.47;;;;;;;11.31;71.29;99064.56;4396642;32;33631;-85
2022/11/16 03:20:37;;;;;;;1.65;1.55;;;;;;;11.21;71.60;99058.94;4392366;32;33330;-83
2022/11/16 03:23:09;;;;;;;8.52;4.25;;;;;;;11.17;71.93;99052.97;4393085;32;35746;-84
2022/11/16 03:25:50;;;;;;;3.63;3.30;;;;;;;11.42;70.79;99047.09;4381422;32;33427;-83
2022/11/16 03:28:30;;;;;;;5.78;2.60;;;;;;;11.73;69.76;99045.28;4397751;32;33831;-83
2022/11/16 03:31:05;;;;;;;9.93;4.87;;;;;;;11.36;71.01;99051.91;4383124;32;33303;-85
2022/11/16 03:33:36;;;;;;;4.93;3.95;;;;;;;11.20;71.45;99044.88;4385943;32;32108;-82
2022/11/16 03:36:22;;;;;;;4.82;2.78;;;;;;;11.25;70.78;99047.22;4396298;32;33721;-82
2022/11/16 03:38:51;;;;;;;2.20;2.05;;;;;;;11.44;70.70;99041.72;4385488;32;34051;-82
2022/11/16 03:41:21;;;;;;;2.45;2.35;;;;;;;11.53;69.83;99042.03;4382423;32;33362;-82
2022/11/16 03:43:50;;;;;;;9.30;5.47;;;;;;;11.24;71.39;99027.88;4384718;32;34627;-82
2022/11/16 03:46:18;;;;;;;7.20;4.30;;;;;;;11.31;71.11;99027.56;4391205;32;33933;-84
2022/11/16 03:48:46;;;;;;;3.05;2.85;;;;;;;11.44;70.33;99028.50;4385809;32;32504;-84
2022/11/16 03:51:14;;;;;;;5.10;4.65;;;;;;;11.46;70.38;99022.19;4383319;32;33473;-84
2022/11/16 03:53:42;;;;;;;2.92;1.80;;;;;;;11.36;70.58;99020.19;4399404;32;33783;-84
2022/11/16 03:56:09;;;;;;;1.92;1.83;;;;;;;11.45;70.22;99015.22;4385757;32;33145;-84
2022/11/16 03:58:37;;;;;;;5.28;3.60;;;;;;;11.08;71.93;99018.31;4396543;32;33965;-84
2022/11/16 04:01:05;;;;;;;2.80;2.58;;;;;;;11.21;71.38;99016.66;4396603;32;33931;-84
2022/11/16 04:03:34;;;;;;;5.62;5.18;;;;;;;10.84;73.21;99013.50;4384913;32;34473;-84
2022/11/16 04:25:59;;;;;;;8.02;5.65;;;;;;;11.34;71.19;98996.47;4337194;33;33771;-82
2022/11/16 04:28:28;;;;;;;3.40;3.10;;;;;;;11.02;72.48;98995.75;4360540;32;33936;-82
2022/11/16 04:39:18;;;;;;;4.12;3.60;;;;;;;11.25;72.14;98975.88;4395837;32;32862;-82
2022/11/16 04:47:21;;;;;;;5.00;4.60;;;;;;;11.09;72.50;98975.09;4381918;32;34218;-82
2022/11/16 04:49:49;;;;;;;4.22;3.80;;;;;;;11.17;72.09;98973.72;4372857;32;33998;-82
2022/11/16 04:52:17;;;;;;;3.42;3.22;;;;;;;11.02;72.47;98970.19;4389440;32;32845;-82
2022/11/16 04:54:44;;;;;;;8.15;2.95;;;;;;;11.03;72.58;98971.87;4395210;32;33938;-83
2022/11/16 04:57:13;;;;;;;7.10;4.70;;;;;;;11.21;72.36;98969.94;4391488;32;33914;-83
2022/11/16 04:59:40;;;;;;;5.85;4.72;;;;;;;11.24;71.99;98974.19;4395685;32;34012;-82
2022/11/16 05:02:08;;;;;;;3.87;3.60;;;;;;;11.10;72.59;98971.50;4396731;32;34326;-82
2022/11/16 05:04:39;;;;;;;10.80;6.35;;;;;;;11.12;72.12;98974.94;4393815;32;33492;-82
2022/11/16 05:07:10;;;;;;;8.10;5.82;;;;;;;10.93;73.24;98965.44;4397118;32;34763;-82
2022/11/16 05:09:46;;;;;;;4.78;4.03;;;;;;;10.94;73.20;98961.84;4396189;32;34089;-82
2022/11/16 05:12:20;;;;;;;4.90;4.60;;;;;;;11.07;72.70;98961.16;4376520;32;34068;-82
2022/11/16 05:14:48;;;;;;;7.68;4.12;;;;;;;11.31;71.90;98964.13;4368398;32;34527;-82
2022/11/16 05:17:17;;;;;;;4.28;3.87;;;;;;;11.26;71.83;98967.03;4384180;32;35113;-82
2022/11/16 05:22:32;;;;;;;2.12;1.65;;;;;;;11.47;71.03;98965.72;4393277;32;34264;-82
2022/11/16 05:25:01;;;;;;;8.52;3.28;;;;;;;11.07;72.29;98962.00;4397899;32;34085;-86
2022/11/16 05:27:29;;;;;;;8.10;4.47;;;;;;;11.08;72.21;98957.56;4396010;32;33875;-88
2022/11/16 05:29:58;;;;;;;7.18;3.17;;;;;;;11.02;72.80;98956.97;4392147;32;32978;-86
2022/11/16 05:32:30;;;;;;;3.85;3.30;;;;;;;11.08;72.51;98953.12;4396514;32;34608;-87
2022/11/16 05:34:58;;;;;;;8.43;3.50;;;;;;;11.05;72.79;98947.16;4393579;32;32261;-87
2022/11/16 05:37:26;;;;;;;7.18;1.92;;;;;;;10.79;73.81;98952.19;4390345;32;33813;-83
2022/11/16 05:40:06;;;;;;;7.30;3.90;;;;;;;10.89;73.31;98947.22;4385981;32;33459;-86
2022/11/16 05:42:35;;;;;;;3.53;3.00;;;;;;;11.02;73.06;98938.50;4384280;32;33147;-86
2022/11/16 05:45:03;;;;;;;3.78;2.50;;;;;;;11.09;72.77;98938.12;4383172;32;32637;-86
2022/11/16 05:47:32;;;;;;;6.15;5.55;;;;;;;11.04;73.04;98935.75;4388970;32;32933;-87
2022/11/16 05:50:00;;;;;;;11.90;5.47;;;;;;;11.13;72.72;98927.28;4393755;32;33940;-86
2022/11/16 05:52:28;;;;;;;4.93;4.53;;;;;;;11.13;72.81;98929.91;4394379;32;33401;-86
2022/11/16 05:54:59;;;;;;;2.37;2.28;;;;;;;11.21;72.38;98932.13;4381718;32;33375;-85
2022/11/16 05:57:27;;;;;;;3.25;2.95;;;;;;;11.14;72.42;98936.91;4383436;32;34635;-84
2022/11/16 05:59:54;;;;;;;6.85;4.72;;;;;;;11.32;71.91;98934.94;4380889;32;32540;-84
2022/11/16 06:02:22;;;;;;;3.37;3.17;;;;;;;11.23;72.37;98930.22;4382123;32;32417;-85
2022/11/16 06:04:50;;;;;;;11.82;5.32;;;;;;;11.22;72.27;98928.53;4382151;32;32786;-85
2022/11/16 06:07:19;;;;;;;4.12;3.42;;;;;;;11.24;72.47;98927.47;4355960;32;32954;-86
2022/11/16 06:09:47;;;;;;;7.18;4.72;;;;;;;11.33;72.22;98923.44;4392193;32;34685;-86
2022/11/16 06:12:15;;;;;;;3.37;3.08;;;;;;;11.73;70.64;98918.34;4389318;32;33861;-85
2022/11/16 06:14:43;;;;;;;2.53;2.42;;;;;;;11.34;71.61;98927.75;4379613;32;32319;-85
2022/11/16 06:17:13;;;;;;;5.15;2.65;;;;;;;11.22;72.28;98923.22;4379166;32;33026;-86
2022/11/16 06:19:41;;;;;;;3.25;3.08;;;;;;;11.69;70.75;98922.12;4392437;32;35053;-86
2022/11/16 06:22:09;;;;;;;2.37;1.50;;;;;;;11.65;70.91;98916.16;4387899;32;34296;-86
2022/11/16 06:24:37;;;;;;;5.35;4.97;;;;;;;11.58;70.50;98930.69;4366649;32;33627;-88
2022/11/16 06:27:04;;;;;;;9.25;6.05;;;;;;;11.72;70.55;98916.63;4370581;32;33498;-86
2022/11/16 06:29:32;;;;;;;5.68;5.10;;;;;;;11.59;70.74;98924.50;4396567;32;32399;-86
2022/11/16 06:32:00;;;;;;;2.03;1.67;;;;;;;11.59;70.71;98915.72;4391240;32;32955;-86
2022/11/16 06:34:28;;;;;;;3.58;3.30;;;;;;;11.37;71.36;98917.00;4355572;32;32303;-87
2022/11/16 06:36:55;;;;;;;2.97;2.70;;;;;;;11.47;71.43;98912.84;4381750;32;33983;-86
2022/11/16 06:39:23;;;;;;;2.20;2.10;;;;;;;11.30;71.98;98918.34;4394066;32;34010;-86
2022/11/16 06:41:51;;;;;;;2.25;2.05;;;;;;;11.38;71.63;98921.34;4379810;32;34003;-86
2022/11/16 06:44:19;;;;;;;14.68;3.20;;;;;;;11.51;70.88;98906.44;4398129;32;32689;-92
2022/11/16 06:47:13;;;;;;;10.35;5.45;;;;;;;11.32;71.20;98903.22;4378540;32;33120;-93
2022/11/16 06:49:52;;;;;;;5.97;4.70;;;;;;;11.00;73.19;98911.28;4352560;32;32841;-92
2022/11/16 06:52:33;;;;;;;4.35;3.42;;;;;;;10.93;73.35;98907.34;4335707;33;33017;-89
2022/11/16 06:56:53;;;;;;;11.65;6.97;;;;;;;11.32;72.04;98900.59;4327664;33;34066;-91
2022/11/16 06:59:41;;;;;;;1.90;1.80;;;;;;;11.33;71.95;98901.44;4333917;33;32368;-91
2022/11/16 07:03:30;;;;;;;5.97;4.50;;;;;;;11.39;71.60;98893.97;4290271;33;34710;-92
2022/11/16 07:06:23;;;;;;;6.22;4.53;;;;;;;11.09;72.88;98888.75;4321904;33;32961;-92
2022/11/16 07:09:07;;;;;;;3.92;2.45;;;;;;;11.16;72.41;98891.91;4291163;33;32348;-92
2022/11/16 07:11:58;;;;;;;4.47;2.78;;;;;;;11.17;72.73;98893.59;4362645;32;33848;-89
2022/11/16 07:14:44;;;;;;;2.78;2.58;;;;;;;11.21;72.65;98892.47;4373723;32;33998;-89
2022/11/16 07:18:24;;;;;;;3.25;2.95;;;;;;;11.23;72.87;98890.56;4319197;33;34586;-91
2022/11/16 07:21:14;;;;;;;4.87;4.45;;;;;;;11.40;72.15;98890.41;4363816;32;34047;-92
2022/11/16 07:23:58;;;;;;;4.32;4.03;;;;;;;11.47;71.93;98881.13;4343762;33;32674;-91
2022/11/16 07:26:29;;;;;;;9.43;4.85;;;;;;;11.75;70.71;98882.06;4347674;33;33432;-91
2022/11/16 07:29:09;;;;;;;2.47;2.37;;;;;;;11.73;70.37;98879.53;4340667;33;33158;-91
2022/11/16 07:31:49;;;;;;;5.65;5.18;;;;;;;11.54;71.20;98881.63;4346248;33;33439;-91
2022/11/16 07:34:37;;;;;;;3.65;3.42;;;;;;;11.37;71.97;98880.00;4331951;33;34008;-91
2022/11/16 07:37:20;;;;;;;3.22;3.00;;;;;;;11.14;72.95;98877.91;4358367;32;32888;-89
2022/11/16 07:39:48;;;;;;;5.78;4.72;;;;;;;11.28;72.54;98876.12;4355014;32;34065;-89
2022/11/16 07:42:16;;;;;;;5.50;5.10;;;;;;;11.27;72.82;98873.59;4381519;32;33457;-89
2022/11/16 07:44:44;;;;;;;13.95;5.57;;;;;;;11.18;72.93;98871.50;4369066;32;33606;-89
2022/11/16 07:47:13;;;;;;;8.60;5.22;;;;;;;10.97;73.86;98877.16;4357252;32;35626;-89
2022/11/16 07:49:41;;;;;;;4.15;3.90;;;;;;;11.34;72.77;98864.34;4394959;32;33529;-88
2022/11/16 07:52:09;;;;;;;7.15;3.42;;;;;;;10.89;74.17;98860.06;4410214;32;33317;-87
2022/11/16 07:54:38;;;;;;;3.67;3.47;;;;;;;10.66;75.25;98862.28;4395421;32;32465;-87
2022/11/16 07:57:07;;;;;;;7.25;4.68;;;;;;;10.67;75.89;98861.31;4384610;32;33223;-87
2022/11/16 07:59:35;;;;;;;5.00;4.22;;;;;;;10.83;75.36;98856.00;4386056;32;34051;-88
2022/11/16 08:02:03;;;;;;;4.60;4.20;;;;;;;11.15;73.90;98846.12;4381480;32;33008;-87
2022/11/16 08:04:31;;;;;;;3.85;3.47;;;;;;;11.25;73.65;98844.63;4399354;32;35687;-87
2022/11/16 08:06:59;;;;;;;5.85;5.12;;;;;;;11.56;72.20;98842.72;4395370;32;34678;-87
2022/11/16 08:09:28;;;;;;;4.85;4.55;;;;;;;11.51;72.30;98848.28;4393904;32;33042;-89
2022/11/16 08:11:57;;;;;;;10.18;3.65;;;;;;;11.39;72.84;98840.25;4383138;32;31037;-87
2022/11/16 08:14:24;;;;;;;3.15;2.95;;;;;;;11.27;73.40;98849.81;4394436;32;34288;-88
2022/11/16 08:16:52;;;;;;;4.55;3.78;;;;;;;11.62;72.49;98852.03;4396656;32;34065;-88
2022/11/16 08:19:21;;;;;;;11.70;6.22;;;;;;;11.13;74.29;98850.66;4395812;32;32516;-88
2022/11/16 08:21:52;;;;;;;4.87;4.47;;;;;;;11.55;72.40;98846.31;4395727;32;33322;-88
2022/11/16 08:24:19;;;;;;;21.87;7.37;;;;;;;11.62;72.61;98854.69;4399501;32;33770;-94
2022/11/16 08:27:01;;;;;;;5.82;5.15;;;;;;;11.24;73.81;98852.63;4402705;32;33232;-94
2022/11/16 08:29:56;;;;;;;8.30;3.80;;;;;;;11.49;72.87;98842.25;4392674;32;34671;-94
2022/11/16 08:32:40;;;;;;;4.28;4.00;;;;;;;11.35;72.70;98850.19;4350181;32;32610;-94
2022/11/16 08:35:10;;;;;;;4.78;4.35;;;;;;;11.20;73.32;98849.34;4355171;32;34326;-88
2022/11/16 08:37:38;;;;;;;3.08;2.80;;;;;;;11.14;74.33;98848.84;4338063;33;33342;-89
2022/11/16 08:40:07;;;;;;;2.87;2.62;;;;;;;11.28;73.59;98848.84;4348940;32;32744;-88
2022/11/16 08:42:35;;;;;;;3.60;3.37;;;;;;;11.42;73.50;98846.22;4338133;32;32717;-88
2022/11/16 08:45:09;;;;;;;8.23;4.12;;;;;;;11.10;73.83;98847.34;4361653;32;33225;-89
2022/11/16 08:47:37;;;;;;;4.60;4.30;;;;;;;11.36;73.63;98841.31;4341093;33;33249;-88
2022/11/16 08:50:05;;;;;;;7.90;4.25;;;;;;;11.62;72.90;98837.03;4341979;33;33541;-88
2022/11/16 08:52:33;;;;;;;6.60;3.62;;;;;;;11.60;73.05;98843.37;4356611;32;33326;-88
2022/11/16 08:55:01;;;;;;;4.65;4.28;;;;;;;11.44;73.26;98836.41;4355140;32;33911;-88
2022/11/16 08:57:29;;;;;;;6.65;6.05;;;;;;;11.67;72.59;98839.38;4324717;33;33295;-88
2022/11/16 08:59:57;;;;;;;8.60;5.28;;;;;;;11.67;73.02;98828.81;4343212;32;32386;-88
2022/11/16 09:02:25;;;;;;;6.20;3.12;;;;;;;11.57;72.38;98836.47;4346350;32;33271;-88
2022/11/16 09:04:52;;;;;;;2.75;2.65;;;;;;;11.24;74.00;98834.13;4352490;32;33323;-88
2022/11/16 09:07:20;;;;;;;9.43;4.95;;;;;;;11.51;72.79;98827.13;4351030;32;33937;-88
2022/11/16 09:09:48;;;;;;;2.45;2.22;;;;;;;11.56;72.69;98832.12;4333557;32;33003;-88
2022/11/16 09:12:16;;;;;;;4.87;4.20;;;;;;;11.43;73.31;98828.56;4356469;32;32458;-88
2022/11/16 09:14:44;;;;;;;4.15;3.85;;;;;;;11.37;73.21;98821.88;4329586;32;33251;-88
2022/11/16 09:17:11;;;;;;;6.15;5.62;;;;;;;11.30;73.86;98820.56;4325740;33;33409;-88
2022/11/16 09:19:39;;;;;;;7.40;5.95;;;;;;;11.24;74.23;98820.91;4344475;32;34717;-88
2022/11/16 09:22:07;;;;;;;3.60;3.30;;;;;;;11.58;73.23;98809.06;4354053;32;33205;-88
2022/11/16 09:24:35;;;;;;;5.87;5.28;;;;;;;11.67;73.00;98803.19;4357806;32;32377;-89
2022/11/16 09:27:02;;;;;;;6.78;6.15;;;;;;;11.56;73.34;98810.97;4330761;32;33064;-88
2022/11/16 09:29:30;;;;;;;5.10;4.65;;;;;;;11.53;73.80;98806.72;4337065;32;33746;-88
2022/11/16 09:31:58;;;;;;;7.80;5.25;;;;;;;11.54;73.28;98813.72;4359030;32;32534;-88
2022/11/16 09:34:25;;;;;;;4.50;3.78;;;;;;;11.56;73.30;98820.72;4351474;32;33897;-88
2022/11/16 09:36:53;;;;;;;9.32;6.12;;;;;;;11.69;72.71;98816.34;4330419;32;32966;-88
2022/11/16 09:39:21;;;;;;;5.05;3.85;;;;;;;11.95;72.01;98817.34;4361180;32;32015;-88
2022/11/16 09:42:05;;;;;;;15.63;4.72;;;;;;;11.98;71.52;98811.84;4340234;32;33291;-88
2022/11/16 09:44:43;;;;;;;4.12;3.62;;;;;;;11.74;72.27;98808.97;4357515;32;34104;-88
2022/11/16 09:47:20;;;;;;;6.90;6.12;;;;;;;11.48;73.22;98800.88;4352714;32;33517;-88
2022/11/16 09:49:53;;;;;;;6.25;5.75;;;;;;;11.31;74.46;98800.28;4351601;32;33890;-88
2022/11/16 09:52:32;;;;;;;7.47;6.65;;;;;;;11.29;74.61;98798.53;4331566;32;33535;-88
2022/11/16 09:55:23;;;;;;;12.25;5.22;;;;;;;11.37;74.60;98782.22;4340340;32;33423;-88
2022/11/16 09:57:54;;;;;;;5.32;5.03;;;;;;;11.42;74.54;98781.94;4351711;32;32932;-94
2022/11/16 10:00:40;;;;;;;10.38;7.82;;;;;;;11.57;74.04;98775.66;4377542;32;32474;-94
2022/11/16 10:03:24;;;;;;;4.80;4.45;;;;;;;11.38;74.43;98778.62;4387633;32;33096;-94
2022/11/16 10:06:28;;;;;;;8.50;4.12;;;;;;;11.19;75.15;98775.44;4382838;32;35370;-94
2022/11/16 10:09:11;;;;;;;6.10;5.55;;;;;;;11.11;75.65;98775.94;4355527;32;34624;-93
2022/11/16 10:12:42;;;;;;;10.13;6.78;;;;;;;11.18;75.41;98771.94;4329868;33;34473;-88
2022/11/16 10:15:23;;;;;;;8.98;5.12;;;;;;;11.36;74.44;98771.75;4332970;33;34111;-88
2022/11/16 10:17:50;;;;;;;8.98;4.40;;;;;;;11.36;74.89;98763.81;4322952;33;33741;-88
2022/11/16 10:20:36;;;;;;;8.38;7.53;;;;;;;11.74;73.74;98766.66;4338586;33;34138;-88
2022/11/16 10:23:16;;;;;;;9.00;7.37;;;;;;;11.45;74.19;98760.59;4334883;33;33282;-88
2022/11/16 10:25:46;;;;;;;10.68;6.53;;;;;;;11.36;74.53;98754.09;4332017;33;32594;-88
2022/11/16 10:28:19;;;;;;;4.18;3.87;;;;;;;11.43;74.48;98751.91;4325607;33;33896;-88
2022/11/16 10:31:05;;;;;;;8.23;5.97;;;;;;;11.29;75.41;98747.50;4332939;33;34777;-88
2022/11/16 10:33:35;;;;;;;6.70;6.05;;;;;;;11.39;74.47;98745.09;4322458;33;32505;-88
2022/11/16 10:36:20;;;;;;;8.55;5.90;;;;;;;11.70;73.56;98739.56;4355219;32;32694;-89
2022/11/16 10:38:48;;;;;;;13.48;5.62;;;;;;;11.57;74.03;98732.50;4349151;32;32233;-88
2022/11/16 10:41:15;;;;;;;11.65;6.40;;;;;;;11.63;73.04;98729.47;4338572;32;33803;-88
2022/11/16 10:43:44;;;;;;;5.45;4.93;;;;;;;11.68;73.71;98730.00;4348710;32;33193;-88
2022/11/16 10:46:29;;;;;;;7.43;6.72;;;;;;;11.27;75.00;98726.47;4348839;32;33426;-89
2022/11/16 10:49:19;;;;;;;6.57;4.82;;;;;;;11.45;73.83;98713.87;4331452;32;32902;-88
2022/11/16 10:51:47;;;;;;;2.55;2.40;;;;;;;11.68;74.00;98711.50;4352386;32;34448;-94
2022/11/16 10:54:29;;;;;;;13.60;4.65;;;;;;;11.74;73.31;98706.69;4361272;32;33665;-93
2022/11/16 10:57:14;;;;;;;8.75;5.22;;;;;;;11.53;74.23;98700.97;4372566;32;32982;-94
2022/11/16 10:59:57;;;;;;;9.00;4.55;;;;;;;11.39;74.87;98695.75;4351028;32;32748;-93
2022/11/16 11:02:47;;;;;;;14.23;6.32;;;;;;;11.51;74.18;98702.88;4377022;32;33006;-93
2022/11/16 11:05:28;;;;;;;9.50;5.50;;;;;;;11.82;73.68;98690.34;4395111;32;33361;-93
2022/11/16 11:08:11;;;;;;;11.68;5.68;;;;;;;11.97;72.91;98691.13;4359269;32;32777;-94
2022/11/16 11:12:36;;;;;;;16.87;5.00;;;;;;;11.75;73.56;98695.13;4356986;32;34049;-93
2022/11/16 11:14:09;;;;;;;4.70;4.32;;;;;;;11.93;73.42;98697.56;4373620;32;32701;-94
2022/11/16 11:16:52;;;;;;;4.85;4.37;;;;;;;11.75;73.43;98691.66;4379225;32;32870;-93
2022/11/16 11:19:34;;;;;;;5.32;4.80;;;;;;;12.09;72.51;98690.28;4339693;33;32168;-92
2022/11/16 11:22:16;;;;;;;6.12;5.55;;;;;;;12.09;72.50;98674.41;4402367;32;33255;-93
2022/11/16 11:25:00;;;;;;;4.55;4.25;;;;;;;11.94;72.51;98675.44;4361241;32;34435;-92
2022/11/16 11:27:42;;;;;;;7.90;5.60;;;;;;;12.15;72.08;98665.19;4358681;32;32737;-91
2022/11/16 11:30:22;;;;;;;15.43;6.93;;;;;;;12.24;72.03;98668.06;4349051;32;32194;-87
2022/11/16 11:32:51;;;;;;;6.05;5.22;;;;;;;12.28;71.54;98655.47;4348349;32;33584;-87
2022/11/16 11:35:30;;;;;;;5.20;4.70;;;;;;;12.07;72.09;98652.50;4344808;32;34338;-87
2022/11/16 11:38:00;;;;;;;5.97;5.37;;;;;;;11.83;73.12;98648.88;4354576;32;89890;-87
2022/11/16 11:40:34;;;;;;;4.37;3.03;;;;;;;11.94;72.65;98651.63;4362041;32;33993;-87
2022/11/16 11:43:04;;;;;;;10.98;4.53;;;;;;;11.77;73.32;98658.00;4336643;33;33186;-87
2022/11/16 11:45:47;;;;;;;10.82;4.07;;;;;;;11.93;72.63;98650.78;4352091;32;34180;-87
2022/11/16 11:48:40;;;;;;;9.38;8.13;;;;;;;11.90;73.14;98653.63;4340617;32;33605;-87
2022/11/16 11:51:23;;;;;;;7.57;6.10;;;;;;;11.77;73.10;98639.50;4352603;32;33246;-87
2022/11/16 11:53:57;;;;;;;10.38;5.10;;;;;;;11.56;74.55;98652.34;4341732;32;33310;-86
2022/11/16 11:56:27;;;;;;;5.40;4.32;;;;;;;11.65;74.08;98656.19;4355112;32;34362;-86
2022/11/16 11:58:55;;;;;;;4.82;3.75;;;;;;;11.98;72.94;98648.69;4352976;32;34395;-86
2022/11/16 12:01:49;;;;;;;4.03;3.72;;;;;;;12.02;72.80;98646.69;4354732;32;33273;-86
2022/11/16 12:04:48;;;;;;;9.27;6.30;;;;;;;11.97;72.77;98639.06;4351539;32;33292;-86
2022/11/16 12:07:16;;;;;;;6.35;5.78;;;;;;;11.77;73.59;98636.84;4344943;32;33347;-86
2022/11/16 12:10:02;;;;;;;5.65;3.87;;;;;;;11.92;73.27;98632.38;4354278;32;33477;-86
2022/11/16 12:12:29;;;;;;;4.10;3.53;;;;;;;12.01;72.49;98631.72;4355346;32;34212;-86
2022/11/16 12:15:28;;;;;;;10.55;6.07;;;;;;;11.71;73.29;98637.28;4355125;32;34544;-86
2022/11/16 12:17:56;;;;;;;2.25;2.10;;;;;;;11.78;73.29;98635.94;4352948;32;33441;-86
2022/11/16 12:21:10;;;;;;;11.45;6.15;;;;;;;11.95;72.89;98633.00;4355989;32;34198;-86
2022/11/16 12:23:37;;;;;;;3.50;3.20;;;;;;;12.27;71.82;98630.81;4342436;32;32149;-87
2022/11/16 12:26:08;;;;;;;6.10;4.40;;;;;;;12.24;71.80;98627.50;4367074;32;33181;-85
2022/11/16 12:29:15;;;;;;;2.83;2.47;;;;;;;11.97;72.57;98631.13;4352750;32;33680;-84
2022/11/16 12:32:02;;;;;;;4.18;3.17;;;;;;;12.21;71.91;98631.22;4354592;32;33596;-85
2022/11/16 12:35:08;;;;;;;4.62;4.20;;;;;;;12.03;72.55;98622.75;4341155;32;33287;-84
2022/11/16 12:37:48;;;;;;;13.30;4.75;;;;;;;12.29;71.73;98614.81;4344686;32;33261;-85
2022/11/16 12:40:35;;;;;;;3.90;3.53;;;;;;;11.96;72.09;98618.84;4348571;32;33002;-84
2022/11/16 12:43:42;;;;;;;6.28;3.50;;;;;;;11.67;74.09;98617.25;4353403;32;34462;-85
2022/11/16 12:46:29;;;;;;;3.67;3.22;;;;;;;11.88;73.24;98610.56;4340734;32;32337;-85
2022/11/16 12:49:08;;;;;;;2.53;2.33;;;;;;;11.92;72.99;98605.94;4354528;32;33845;-85
2022/11/16 12:51:48;;;;;;;3.80;3.50;;;;;;;12.13;72.26;98599.16;4345458;32;33169;-84